Time;durP1;ratioP1;P1;durP2;ratioP2;P2;SDS_P1;SDS_P2;PMS_P1;PMS_P2;Temp;Humidity;BMP_temperature;BMP_pressure;BME280_temperature;BME280_humidity;BME280_pressure;Samples;Min_cycle;Max_cycle;Signal;HPM_P1;HPM_P2
2023/09/30 00:02:17;;;;;;;11.23;4.05;;;;;;;10.97;100.00;101127.94;5043557;28;20048;-92
2023/09/30 00:04:56;;;;;;;7.25;3.63;;;;;;;10.99;100.00;101133.94;5065779;28;20032;-90
2023/09/30 00:07:36;;;;;;;11.35;5.03;;;;;;;10.92;100.00;101123.03;5045522;28;20575;-92
2023/09/30 00:10:40;;;;;;;14.27;5.55;;;;;;;10.95;100.00;101123.75;5038750;28;20464;-92
2023/09/30 00:13:29;;;;;;;18.30;8.45;;;;;;;10.88;100.00;101121.63;5066857;28;20483;-92
2023/09/30 00:16:03;;;;;;;13.63;7.35;;;;;;;10.87;100.00;101119.09;5064424;28;20039;-91
2023/09/30 00:18:41;;;;;;;16.13;8.82;;;;;;;10.85;100.00;101123.66;5073189;28;20407;-92
2023/09/30 00:21:16;;;;;;;14.98;5.55;;;;;;;10.71;100.00;101133.63;5066409;28;20032;-91
2023/09/30 00:23:47;;;;;;;19.70;6.43;;;;;;;10.64;100.00;101146.50;5069261;28;20042;-92
2023/09/30 00:26:26;;;;;;;13.88;7.63;;;;;;;10.56;100.00;101140.19;5059968;28;20040;-91
2023/09/30 00:28:57;;;;;;;11.65;7.28;;;;;;;10.59;100.00;101153.97;5058573;28;20036;-91
2023/09/30 00:31:26;;;;;;;11.27;5.18;;;;;;;10.53;100.00;101141.25;5052885;28;20063;-92
2023/09/30 00:33:54;;;;;;;7.22;4.20;;;;;;;10.51;100.00;101128.16;5080039;28;20138;-93
2023/09/30 00:36:33;;;;;;;11.57;4.15;;;;;;;10.53;100.00;101120.97;5064535;28;20067;-91
2023/09/30 00:43:29;;;;;;;4.95;3.47;;;;;;;10.53;100.00;101139.47;5110691;28;20062;-92
2023/09/30 00:46:26;;;;;;;9.73;4.00;;;;;;;10.54;100.00;101133.19;5059144;28;20040;-92
2023/09/30 00:48:58;;;;;;;8.60;3.50;;;;;;;10.40;100.00;101129.03;5058491;28;20032;-92
2023/09/30 00:51:31;;;;;;;7.47;3.08;;;;;;;10.37;100.00;101109.94;5068514;28;20035;-91
2023/09/30 00:54:00;;;;;;;3.67;2.30;;;;;;;10.41;100.00;101135.16;5063405;28;20078;-92
2023/09/30 00:56:30;;;;;;;11.75;4.05;;;;;;;10.37;100.00;101128.44;5059568;28;20039;-92
2023/09/30 00:58:58;;;;;;;9.98;3.28;;;;;;;10.25;100.00;101122.38;5055780;28;20035;-92
2023/09/30 01:01:25;;;;;;;7.13;3.10;;;;;;;10.22;100.00;101139.31;5057314;28;20118;-92
2023/09/30 01:03:54;;;;;;;6.32;3.15;;;;;;;10.26;100.00;101150.44;5068696;28;20032;-92
2023/09/30 01:06:20;;;;;;;19.08;7.25;;;;;;;10.23;100.00;101148.06;5065214;28;20043;-92
2023/09/30 01:08:46;;;;;;;14.52;6.32;;;;;;;10.25;100.00;101157.56;5059119;28;20040;-91
2023/09/30 01:11:13;;;;;;;15.27;7.13;;;;;;;10.20;100.00;101146.53;5057345;28;20047;-92
2023/09/30 01:13:39;;;;;;;13.05;5.72;;;;;;;10.14;100.00;101128.53;5059320;28;20031;-93
2023/09/30 01:16:07;;;;;;;7.85;5.32;;;;;;;10.23;100.00;101134.84;5061676;28;20106;-92
2023/09/30 01:18:42;;;;;;;;;;;;;;;10.20;100.00;101130.66;5055524;28;20066;-92
2023/09/30 01:21:09;;;;;;;9.27;5.07;;;;;;;10.23;100.00;101124.28;5057952;28;19912;-92
2023/09/30 01:23:35;;;;;;;12.90;4.63;;;;;;;10.19;100.00;101129.00;5052953;28;20042;-92
2023/09/30 01:26:09;;;;;;;8.57;4.85;;;;;;;10.15;100.00;101136.31;5061805;28;20051;-92
2023/09/30 01:28:35;;;;;;;11.20;5.43;;;;;;;10.13;100.00;101140.06;5070597;28;20132;-92
2023/09/30 01:31:02;;;;;;;9.27;5.03;;;;;;;10.14;100.00;101136.44;5063452;28;20058;-92
2023/09/30 01:33:28;;;;;;;11.48;5.38;;;;;;;10.13;100.00;101134.78;5078735;28;20023;-92
2023/09/30 01:35:54;;;;;;;9.50;5.47;;;;;;;10.14;100.00;101139.09;5056669;28;20034;-93
2023/09/30 01:38:23;;;;;;;8.15;5.45;;;;;;;10.08;100.00;101124.56;5075013;28;20460;-92
2023/09/30 01:40:50;;;;;;;10.73;5.75;;;;;;;10.12;100.00;101135.72;5061306;28;20039;-92
2023/09/30 01:43:19;;;;;;;14.43;4.50;;;;;;;10.10;100.00;101146.41;5063442;28;20023;-91
2023/09/30 01:45:45;;;;;;;11.10;4.95;;;;;;;10.05;100.00;101149.44;5062449;28;20047;-92
2023/09/30 01:48:12;;;;;;;10.93;5.03;;;;;;;10.04;100.00;101142.47;5063184;28;20155;-92
2023/09/30 01:50:38;;;;;;;5.45;4.40;;;;;;;10.06;100.00;101131.78;5060527;28;20086;-92
2023/09/30 01:53:09;;;;;;;9.32;5.20;;;;;;;10.05;100.00;101136.22;5082281;28;20038;-91
2023/09/30 01:55:37;;;;;;;9.45;4.85;;;;;;;10.08;100.00;101129.84;5057523;28;20113;-92
2023/09/30 01:58:04;;;;;;;9.00;5.25;;;;;;;10.10;100.00;101117.38;5085711;28;20035;-92
2023/09/30 02:00:30;;;;;;;7.93;5.47;;;;;;;10.07;100.00;101112.31;5060159;28;20038;-91
2023/09/30 02:02:57;;;;;;;17.67;7.13;;;;;;;10.07;100.00;101119.41;5070313;28;20107;-92
2023/09/30 02:05:30;;;;;;;20.52;6.93;;;;;;;10.00;100.00;101117.25;5050875;28;20028;-92
2023/09/30 02:07:57;;;;;;;11.35;5.78;;;;;;;9.78;100.00;101104.94;5059200;28;20101;-92
2023/09/30 02:10:24;;;;;;;10.82;5.57;;;;;;;9.77;100.00;101098.84;5052043;28;20036;-92
2023/09/30 02:12:50;;;;;;;11.90;6.47;;;;;;;9.79;100.00;101086.34;5062947;28;20036;-92
2023/09/30 02:15:17;;;;;;;11.52;6.50;;;;;;;9.80;100.00;101089.81;5054201;28;20057;-92
2023/09/30 02:17:45;;;;;;;10.02;6.20;;;;;;;9.87;100.00;101106.88;5058750;28;20028;-92
2023/09/30 02:20:19;;;;;;;12.60;6.93;;;;;;;9.88;100.00;101097.13;5057517;28;20476;-92
2023/09/30 02:22:47;;;;;;;12.23;6.88;;;;;;;9.89;100.00;101096.19;5062404;28;20052;-92
2023/09/30 02:25:13;;;;;;;9.48;6.50;;;;;;;9.93;100.00;101097.59;5056790;28;20020;-92
2023/09/30 02:27:45;;;;;;;11.27;7.15;;;;;;;9.93;100.00;101093.16;5056989;28;20040;-91
2023/09/30 02:30:13;;;;;;;8.15;5.43;;;;;;;9.92;100.00;101085.38;5072697;28;20038;-91
2023/09/30 02:32:40;;;;;;;11.15;5.50;;;;;;;9.92;100.00;101088.00;5055370;28;20155;-91
2023/09/30 02:35:07;;;;;;;10.73;5.93;;;;;;;9.92;100.00;101094.13;5049460;28;20039;-91
2023/09/30 02:37:37;;;;;;;10.93;5.88;;;;;;;9.82;100.00;101081.78;5059734;28;20123;-92
2023/09/30 02:40:10;;;;;;;11.52;5.32;;;;;;;9.76;100.00;101072.56;5079916;28;20062;-91
2023/09/30 02:42:40;;;;;;;7.53;4.95;;;;;;;9.79;100.00;101073.13;5060275;28;20163;-92
2023/09/30 02:45:09;;;;;;;7.03;4.70;;;;;;;9.73;100.00;101071.00;5073998;28;20027;-91
2023/09/30 02:47:42;;;;;;;6.93;4.38;;;;;;;9.73;100.00;101072.81;5056256;28;20044;-91
2023/09/30 02:50:16;;;;;;;6.60;4.20;;;;;;;9.77;100.00;101071.59;5057335;28;20028;-91
2023/09/30 02:52:49;;;;;;;11.95;4.07;;;;;;;9.73;100.00;101063.06;5063499;28;20036;-91
2023/09/30 02:55:20;;;;;;;7.90;4.45;;;;;;;9.77;100.00;101050.47;5054446;28;20034;-91
2023/09/30 02:57:49;;;;;;;10.93;4.63;;;;;;;9.83;100.00;101049.97;5058453;28;20042;-91
2023/09/30 03:00:25;;;;;;;8.10;4.53;;;;;;;9.85;100.00;101050.69;5049399;28;20040;-91
2023/09/30 03:02:56;;;;;;;12.35;4.55;;;;;;;9.85;100.00;101039.28;5075036;28;20130;-91
2023/09/30 03:05:51;;;;;;;12.00;5.43;;;;;;;9.83;100.00;101049.13;5076079;28;20094;-91
2023/09/30 03:08:25;;;;;;;9.65;5.40;;;;;;;9.72;100.00;101044.72;5062495;28;20058;-91
2023/09/30 03:11:06;;;;;;;15.00;5.45;;;;;;;9.66;100.00;101033.72;5069514;28;20043;-91
2023/09/30 03:13:36;;;;;;;7.45;4.25;;;;;;;9.66;100.00;101036.34;5097607;28;20357;-91
2023/09/30 03:16:09;;;;;;;7.80;4.32;;;;;;;9.70;100.00;101039.56;5081485;28;20479;-91
2023/09/30 03:18:35;;;;;;;9.23;4.93;;;;;;;9.72;100.00;101034.16;5061968;28;20043;-92
2023/09/30 03:21:14;;;;;;;8.77;4.53;;;;;;;9.70;100.00;101030.81;5068547;28;20039;-91
2023/09/30 03:23:41;;;;;;;7.82;5.35;;;;;;;9.69;100.00;101037.91;5053227;28;20039;-91
2023/09/30 03:26:10;;;;;;;9.43;4.22;;;;;;;9.64;100.00;101029.50;5079326;28;20490;-91
2023/09/30 03:28:40;;;;;;;11.65;5.22;;;;;;;9.64;100.00;101032.13;5062089;28;20040;-91
2023/09/30 03:31:07;;;;;;;10.05;5.82;;;;;;;9.54;100.00;101037.31;5063155;28;20032;-91
2023/09/30 03:33:35;;;;;;;13.32;4.90;;;;;;;9.53;100.00;101054.13;5061553;28;20040;-92
2023/09/30 03:36:03;;;;;;;7.68;4.25;;;;;;;9.54;100.00;101047.88;5072944;28;20073;-91
2023/09/30 03:38:29;;;;;;;8.55;4.22;;;;;;;9.56;100.00;101045.97;5077154;28;20032;-91
2023/09/30 03:40:56;;;;;;;12.40;5.50;;;;;;;9.52;100.00;101047.19;5068223;28;20043;-91
2023/09/30 03:43:23;;;;;;;13.30;5.63;;;;;;;9.48;100.00;101036.00;5066487;28;20438;-91
2023/09/30 03:45:50;;;;;;;8.70;4.35;;;;;;;9.48;100.00;101037.81;5050639;28;20036;-91
2023/09/30 03:48:18;;;;;;;9.70;4.00;;;;;;;9.50;100.00;101025.34;5072521;28;20044;-91
2023/09/30 03:50:45;;;;;;;8.18;3.30;;;;;;;9.45;100.00;101028.34;5062925;28;20036;-91
2023/09/30 03:53:11;;;;;;;10.25;3.50;;;;;;;9.49;100.00;101037.69;5067460;28;20043;-92
2023/09/30 03:55:37;;;;;;;8.48;3.85;;;;;;;9.53;100.00;101033.00;5064613;28;20055;-91
2023/09/30 03:58:04;;;;;;;7.28;3.28;;;;;;;9.51;100.00;101032.28;5071017;28;20065;-91
2023/09/30 04:00:30;;;;;;;7.60;3.30;;;;;;;9.52;100.00;101026.88;5058747;28;20088;-91
2023/09/30 04:02:59;;;;;;;10.25;3.70;;;;;;;9.47;100.00;101012.38;5061032;28;20051;-92
2023/09/30 04:05:29;;;;;;;6.95;3.42;;;;;;;9.48;100.00;101004.34;5064497;28;20023;-91
2023/09/30 04:07:56;;;;;;;12.45;3.17;;;;;;;9.51;100.00;101017.28;5061228;28;20046;-92
2023/09/30 04:10:25;;;;;;;8.77;3.08;;;;;;;9.49;100.00;101010.47;5051613;28;20049;-91
2023/09/30 04:12:52;;;;;;;6.30;2.83;;;;;;;9.48;100.00;100999.06;5057158;28;20044;-91
2023/09/30 04:15:18;;;;;;;5.32;3.28;;;;;;;9.44;100.00;101000.28;5079984;28;20036;-91
2023/09/30 04:17:51;;;;;;;6.13;2.88;;;;;;;9.49;100.00;100997.28;5060750;28;20130;-91
2023/09/30 04:20:26;;;;;;;6.70;2.90;;;;;;;9.52;100.00;100994.41;5059969;28;20349;-92
2023/09/30 04:22:57;;;;;;;5.22;2.50;;;;;;;9.49;100.00;100989.38;5044819;28;20035;-91
2023/09/30 04:25:26;;;;;;;8.93;2.97;;;;;;;9.54;100.00;100982.75;5062162;28;20032;-90
2023/09/30 04:27:53;;;;;;;9.35;2.58;;;;;;;9.57;100.00;100972.91;5061900;28;20048;-92
2023/09/30 04:30:22;;;;;;;9.07;2.45;;;;;;;9.60;100.00;100975.28;5080442;28;20054;-91
2023/09/30 04:32:51;;;;;;;4.95;2.28;;;;;;;9.63;100.00;100977.69;5063803;28;20078;-91
2023/09/30 04:35:17;;;;;;;5.05;2.28;;;;;;;9.66;100.00;100988.00;5065564;28;20042;-91
2023/09/30 04:37:43;;;;;;;10.38;2.70;;;;;;;9.63;100.00;100982.97;5063370;28;20035;-91
2023/09/30 04:40:15;;;;;;;9.15;2.50;;;;;;;9.60;100.00;100983.22;5067653;28;20031;-91
2023/09/30 04:42:44;;;;;;;5.00;2.38;;;;;;;9.61;100.00;100976.97;5059841;28;20032;-92
2023/09/30 04:45:11;;;;;;;4.95;2.53;;;;;;;9.58;100.00;100959.59;5077170;28;20482;-92
2023/09/30 04:47:38;;;;;;;6.80;2.60;;;;;;;9.66;100.00;100966.88;5071132;28;20043;-92
2023/09/30 04:50:08;;;;;;;5.45;2.40;;;;;;;9.69;100.00;100961.34;5081516;28;20036;-91
2023/09/30 04:52:38;;;;;;;3.60;2.05;;;;;;;9.69;100.00;100961.34;5078478;28;20032;-92
2023/09/30 04:55:05;;;;;;;4.78;1.80;;;;;;;9.68;100.00;100959.69;5058994;28;20024;-91
2023/09/30 04:57:31;;;;;;;6.30;2.10;;;;;;;9.68;100.00;100955.22;5057556;28;20104;-90
2023/09/30 05:00:00;;;;;;;6.78;2.13;;;;;;;9.72;100.00;100955.81;5059501;28;20036;-91
2023/09/30 05:02:27;;;;;;;4.55;1.98;;;;;;;9.77;100.00;100958.06;5072583;28;20031;-91
2023/09/30 05:04:56;;;;;;;5.82;2.25;;;;;;;9.74;100.00;100953.91;5064277;28;20123;-91
2023/09/30 05:07:22;;;;;;;14.45;1.60;;;;;;;9.70;100.00;100949.00;5061234;28;20199;-91
2023/09/30 05:09:53;;;;;;;6.93;2.10;;;;;;;9.74;100.00;100958.31;5063519;28;20112;-91
2023/09/30 05:12:23;;;;;;;4.00;1.88;;;;;;;9.66;100.00;100953.69;5067362;28;20072;-91
2023/09/30 05:14:49;;;;;;;6.57;2.10;;;;;;;9.69;100.00;100958.72;5063801;28;20130;-91
2023/09/30 05:17:18;;;;;;;6.70;2.17;;;;;;;9.65;100.00;100944.91;5079633;28;20127;-91
2023/09/30 05:19:46;;;;;;;8.82;2.10;;;;;;;9.65;100.00;100954.66;5053498;28;20041;-90
2023/09/30 05:22:18;;;;;;;6.18;2.13;;;;;;;9.70;100.00;100947.16;5064131;28;20048;-91
2023/09/30 05:24:44;;;;;;;4.45;1.73;;;;;;;9.71;100.00;100934.81;5060328;28;20036;-90
2023/09/30 05:27:10;;;;;;;15.60;2.83;;;;;;;9.79;100.00;100951.69;5051140;28;20511;-90
2023/09/30 05:29:36;;;;;;;5.32;1.85;;;;;;;9.83;100.00;100957.56;5060755;28;20085;-89
2023/09/30 05:32:02;;;;;;;5.03;1.65;;;;;;;9.86;100.00;100946.75;5071898;28;20036;-91
2023/09/30 05:34:28;;;;;;;7.25;1.85;;;;;;;9.80;100.00;100947.25;5055227;28;20023;-91
2023/09/30 05:36:54;;;;;;;4.50;1.60;;;;;;;9.72;100.00;100939.97;5062625;28;20035;-90
2023/09/30 05:39:20;;;;;;;4.13;2.13;;;;;;;9.79;100.00;100950.88;5076774;28;20089;-92
2023/09/30 05:41:46;;;;;;;4.10;1.63;;;;;;;9.82;100.00;100944.50;5063472;28;20070;-90
2023/09/30 05:44:14;;;;;;;4.22;1.80;;;;;;;9.86;100.00;100941.47;5055771;28;20058;-89
2023/09/30 05:46:40;;;;;;;8.80;1.90;;;;;;;9.88;100.00;100931.63;5060503;28;20088;-91
2023/09/30 05:49:11;;;;;;;5.45;1.90;;;;;;;9.91;100.00;100941.94;5060201;28;20032;-89
2023/09/30 05:51:37;;;;;;;6.70;2.30;;;;;;;9.93;100.00;100944.44;5052656;28;20058;-92
2023/09/30 05:54:04;;;;;;;7.95;2.10;;;;;;;10.01;100.00;100936.72;5070737;28;20444;-92
2023/09/30 05:56:31;;;;;;;6.57;1.95;;;;;;;10.02;100.00;100940.19;5059975;28;20086;-91
2023/09/30 05:59:00;;;;;;;4.05;2.10;;;;;;;9.99;100.00;100943.09;5061633;28;20176;-92
2023/09/30 06:01:27;;;;;;;8.88;1.50;;;;;;;9.95;100.00;100939.03;5059402;28;20050;-92
2023/09/30 06:03:53;;;;;;;5.40;1.60;;;;;;;9.91;100.00;100939.28;5061895;28;20020;-91
2023/09/30 06:06:19;;;;;;;7.38;1.90;;;;;;;9.93;100.00;100931.25;5062442;28;20035;-91
2023/09/30 06:08:45;;;;;;;4.40;1.58;;;;;;;9.97;100.00;100939.75;5078214;28;20235;-91
2023/09/30 06:11:19;;;;;;;9.18;1.67;;;;;;;9.99;100.00;100930.72;5057648;28;20040;-92
2023/09/30 06:13:48;;;;;;;6.53;1.92;;;;;;;10.04;100.00;100933.81;5047233;28;20036;-91
2023/09/30 06:16:16;;;;;;;4.68;1.50;;;;;;;10.00;100.00;100924.47;5053590;28;20031;-91
2023/09/30 06:18:41;;;;;;;6.05;1.60;;;;;;;10.03;100.00;100921.56;5061842;28;20042;-91
2023/09/30 06:21:09;;;;;;;4.22;1.75;;;;;;;10.05;100.00;100917.00;5061613;28;20546;-91
2023/09/30 06:23:35;;;;;;;3.25;2.00;;;;;;;10.03;100.00;100913.66;5061989;28;20119;-90
2023/09/30 06:26:02;;;;;;;5.15;2.55;;;;;;;10.03;100.00;100899.63;5061919;28;20118;-90
2023/09/30 06:28:31;;;;;;;8.23;2.17;;;;;;;10.05;100.00;100898.50;5059165;28;20085;-90
2023/09/30 06:30:57;;;;;;;11.75;2.90;;;;;;;10.02;100.00;100890.84;5060427;28;20127;-90
2023/09/30 06:33:23;;;;;;;16.67;2.17;;;;;;;10.10;100.00;100899.91;5059082;28;20455;-90
2023/09/30 06:35:52;;;;;;;16.02;2.38;;;;;;;10.14;100.00;100888.16;5062345;28;20116;-91
2023/09/30 06:38:22;;;;;;;11.45;2.13;;;;;;;10.12;100.00;100877.72;5058542;28;20036;-91
2023/09/30 06:40:47;;;;;;;10.32;2.55;;;;;;;10.21;100.00;100888.47;5071635;28;20051;-91
2023/09/30 06:43:17;;;;;;;13.65;2.67;;;;;;;10.30;100.00;100882.41;5076956;28;20028;-90
2023/09/30 06:45:44;;;;;;;5.75;1.83;;;;;;;10.32;100.00;100877.78;5072720;28;20495;-91
2023/09/30 06:48:15;;;;;;;11.95;2.13;;;;;;;10.34;100.00;100867.09;5054098;28;20038;-91
2023/09/30 06:50:48;;;;;;;4.53;1.73;;;;;;;10.34;100.00;100860.00;5091166;28;20032;-90
2023/09/30 06:53:15;;;;;;;9.02;1.92;;;;;;;10.35;100.00;100859.03;5076404;28;20032;-90
2023/09/30 06:55:43;;;;;;;8.27;1.85;;;;;;;10.42;100.00;100864.63;5063610;28;20055;-89
2023/09/30 06:58:10;;;;;;;8.00;1.70;;;;;;;10.42;100.00;100854.91;5062946;28;20031;-89
2023/09/30 07:00:41;;;;;;;6.25;1.83;;;;;;;10.50;100.00;100854.25;5061917;28;20031;-88
2023/09/30 07:03:09;;;;;;;9.40;2.70;;;;;;;10.51;100.00;100845.34;5073414;28;20442;-88
2023/09/30 07:05:36;;;;;;;9.23;2.22;;;;;;;10.54;100.00;100845.09;5060548;28;20099;-89
2023/09/30 07:08:02;;;;;;;7.63;1.90;;;;;;;10.57;100.00;100851.09;5060903;28;20043;-88
2023/09/30 07:10:29;;;;;;;9.82;1.80;;;;;;;10.66;100.00;100850.28;5059910;28;20074;-88
2023/09/30 07:12:55;;;;;;;8.88;1.83;;;;;;;10.75;100.00;100838.88;5056715;28;20035;-87
2023/09/30 07:15:21;;;;;;;9.93;1.65;;;;;;;10.90;100.00;100844.63;5061578;28;20480;-86
2023/09/30 07:17:47;;;;;;;11.90;1.50;;;;;;;11.00;100.00;100847.31;5060834;28;20038;-87
2023/09/30 07:20:14;;;;;;;8.38;1.27;;;;;;;11.10;100.00;100847.28;5065862;28;20046;-86
2023/09/30 07:22:40;;;;;;;10.52;1.58;;;;;;;11.17;100.00;100831.72;5053837;28;20036;-86
2023/09/30 07:25:07;;;;;;;13.10;1.55;;;;;;;11.23;100.00;100836.44;5078656;28;20023;-87
2023/09/30 07:27:32;;;;;;;10.27;1.88;;;;;;;11.27;100.00;100832.56;5063996;28;20055;-84
2023/09/30 07:29:59;;;;;;;15.23;1.80;;;;;;;11.33;100.00;100835.59;5077574;28;20036;-86
2023/09/30 07:32:25;;;;;;;13.05;1.42;;;;;;;11.37;100.00;100823.78;5061696;28;20122;-87
2023/09/30 07:34:51;;;;;;;10.90;1.63;;;;;;;11.41;100.00;100831.31;5057729;28;20989;-84
2023/09/30 07:37:18;;;;;;;13.52;1.58;;;;;;;11.45;100.00;100841.59;5060859;28;20036;-85
2023/09/30 07:39:45;;;;;;;12.55;2.13;;;;;;;11.49;100.00;100827.94;5072180;28;20061;-85
2023/09/30 07:42:11;;;;;;;12.10;2.10;;;;;;;11.54;100.00;100831.00;5082315;28;20076;-85
2023/09/30 07:44:37;;;;;;;9.82;1.70;;;;;;;11.59;100.00;100832.38;5058800;28;20529;-86
2023/09/30 07:47:06;;;;;;;15.13;2.25;;;;;;;11.63;100.00;100818.72;5060760;28;20032;-86
2023/09/30 07:49:32;;;;;;;15.60;2.65;;;;;;;11.65;100.00;100819.44;5059536;28;20576;-85
2023/09/30 07:51:58;;;;;;;18.83;1.73;;;;;;;11.69;100.00;100816.50;5062017;28;20047;-84
2023/09/30 07:54:24;;;;;;;10.15;2.22;;;;;;;11.69;100.00;100806.72;5053491;28;20053;-83
2023/09/30 07:56:50;;;;;;;11.63;1.50;;;;;;;11.71;100.00;100799.47;5068689;28;20373;-83
2023/09/30 07:59:16;;;;;;;18.10;2.20;;;;;;;11.73;100.00;100802.81;5058231;28;20196;-86
2023/09/30 08:01:41;;;;;;;14.07;1.90;;;;;;;11.74;100.00;100801.84;5068633;28;20040;-85
2023/09/30 08:04:07;;;;;;;9.80;1.58;;;;;;;11.78;100.00;100799.75;5059858;28;20024;-86
2023/09/30 08:06:33;;;;;;;11.73;2.30;;;;;;;11.80;100.00;100800.44;5056285;28;20483;-86
2023/09/30 08:08:58;;;;;;;10.23;1.90;;;;;;;11.83;100.00;100800.16;5066504;28;20100;-85
2023/09/30 08:11:27;;;;;;;14.60;2.33;;;;;;;11.87;100.00;100798.03;5059001;28;20048;-85
2023/09/30 08:13:58;;;;;;;13.52;1.63;;;;;;;11.94;100.00;100787.72;5053256;28;20511;-86
2023/09/30 08:16:24;;;;;;;23.42;2.50;;;;;;;11.94;100.00;100782.41;5074955;28;20032;-86
2023/09/30 08:18:50;;;;;;;13.32;1.98;;;;;;;11.97;100.00;100780.31;5072010;28;20039;-86
2023/09/30 08:21:16;;;;;;;13.95;2.03;;;;;;;12.00;100.00;100780.03;5050654;28;20039;-85
2023/09/30 08:23:42;;;;;;;10.57;1.90;;;;;;;12.01;100.00;100776.38;5067319;28;20028;-86
2023/09/30 08:26:08;;;;;;;14.38;1.52;;;;;;;12.04;100.00;100789.34;5055505;28;20044;-85
2023/09/30 08:28:35;;;;;;;13.00;1.50;;;;;;;12.06;100.00;100786.53;5054630;28;20469;-84
2023/09/30 08:31:05;;;;;;;13.00;1.60;;;;;;;12.15;100.00;100785.69;5074047;28;20551;-86
2023/09/30 08:33:31;;;;;;;16.33;1.65;;;;;;;12.15;100.00;100792.84;5073791;28;20035;-86
2023/09/30 08:36:08;;;;;;;15.65;1.70;;;;;;;12.21;100.00;100792.25;5055856;28;20031;-85
2023/09/30 08:38:38;;;;;;;11.93;1.50;;;;;;;12.22;100.00;100798.34;5077170;28;20043;-85
2023/09/30 08:41:04;;;;;;;7.30;1.17;;;;;;;12.21;100.00;100794.88;5057005;28;20038;-85
2023/09/30 08:43:31;;;;;;;9.00;1.10;;;;;;;12.24;100.00;100801.69;5053587;28;20031;-84
2023/09/30 08:46:00;;;;;;;9.82;1.75;;;;;;;12.28;100.00;100792.47;5075335;28;20034;-86
2023/09/30 08:48:27;;;;;;;13.70;2.25;;;;;;;12.25;100.00;100790.09;5051856;28;20498;-85
2023/09/30 08:50:57;;;;;;;7.40;1.50;;;;;;;12.26;100.00;100783.84;5056536;28;20050;-85
2023/09/30 08:53:24;;;;;;;11.52;1.33;;;;;;;12.24;100.00;100770.75;5061816;28;20389;-85
2023/09/30 08:55:54;;;;;;;7.65;1.58;;;;;;;12.28;100.00;100761.50;5064384;28;20121;-85
2023/09/30 08:58:24;;;;;;;9.43;1.30;;;;;;;12.32;100.00;100753.25;5058269;28;20044;-84
2023/09/30 09:00:51;;;;;;;9.70;1.15;;;;;;;12.30;100.00;100731.34;5058192;28;20035;-85
2023/09/30 09:03:19;;;;;;;4.78;0.82;;;;;;;12.33;100.00;100728.41;5053999;28;20134;-84
2023/09/30 09:05:45;;;;;;;12.50;1.42;;;;;;;12.30;100.00;100718.09;5073182;28;20039;-86
2023/09/30 09:08:10;;;;;;;10.15;1.05;;;;;;;12.30;100.00;100713.66;5078454;28;20065;-86
2023/09/30 09:10:54;;;;;;;10.57;1.00;;;;;;;12.34;100.00;100719.50;5078699;28;20051;-85
2023/09/30 09:13:20;;;;;;;11.43;1.45;;;;;;;12.29;100.00;100714.66;5077578;28;20082;-84
2023/09/30 09:15:46;;;;;;;12.75;1.90;;;;;;;12.28;100.00;100726.22;5057701;28;20527;-86
2023/09/30 09:18:14;;;;;;;12.68;1.52;;;;;;;12.30;100.00;100728.72;5046880;28;20047;-85
2023/09/30 09:20:40;;;;;;;6.13;1.45;;;;;;;12.32;100.00;100732.06;5064972;28;20393;-85
2023/09/30 09:23:06;;;;;;;10.85;1.83;;;;;;;12.35;100.00;100737.06;5061716;28;20035;-85
2023/09/30 09:25:39;;;;;;;11.63;1.15;;;;;;;12.35;100.00;100737.91;5086700;28;20046;-85
2023/09/30 09:28:05;;;;;;;8.98;1.25;;;;;;;12.33;100.00;100731.06;5077972;28;20035;-85
2023/09/30 09:30:30;;;;;;;5.90;1.02;;;;;;;12.32;100.00;100735.53;5078099;28;20534;-86
2023/09/30 09:33:04;;;;;;;9.98;1.27;;;;;;;12.28;100.00;100713.81;5060815;28;20023;-85
2023/09/30 09:35:32;;;;;;;8.20;1.20;;;;;;;12.31;100.00;100696.75;5028779;28;20036;-86
2023/09/30 09:37:59;;;;;;;8.02;1.23;;;;;;;12.32;100.00;100679.03;5074278;28;20058;-87
2023/09/30 09:40:30;;;;;;;8.52;1.00;;;;;;;12.32;100.00;100684.34;5079794;28;20119;-87
2023/09/30 09:43:08;;;;;;;9.43;1.20;;;;;;;12.37;100.00;100695.34;5068006;28;20758;-86
2023/09/30 09:45:40;;;;;;;10.95;1.77;;;;;;;12.33;100.00;100680.69;5058101;28;20055;-87
2023/09/30 09:48:06;;;;;;;12.52;1.40;;;;;;;12.29;100.00;100682.84;5057900;28;20046;-87
2023/09/30 09:50:32;;;;;;;9.60;1.80;;;;;;;12.31;100.00;100688.00;5070299;28;20123;-86
2023/09/30 09:53:00;;;;;;;7.00;1.77;;;;;;;12.31;100.00;100688.81;5056312;28;20040;-86
2023/09/30 09:55:27;;;;;;;13.23;2.70;;;;;;;12.32;100.00;100687.84;5072728;28;20024;-85
2023/09/30 09:57:54;;;;;;;9.88;2.17;;;;;;;12.31;100.00;100672.09;5054995;28;22552;-85
2023/09/30 10:00:23;;;;;;;10.13;2.22;;;;;;;12.33;100.00;100672.75;5055296;28;20024;-87
2023/09/30 10:02:50;;;;;;;10.75;2.15;;;;;;;12.29;100.00;100677.53;5075368;28;20043;-86
2023/09/30 10:05:18;;;;;;;8.18;2.45;;;;;;;12.28;100.00;100684.66;5057204;28;20027;-88
2023/09/30 10:07:55;;;;;;;10.40;2.92;;;;;;;12.28;100.00;100663.44;5058746;28;20040;-87
2023/09/30 10:10:23;;;;;;;9.45;2.55;;;;;;;12.25;100.00;100647.84;5070590;28;20082;-87
2023/09/30 10:12:49;;;;;;;15.73;3.67;;;;;;;12.21;100.00;100653.59;5073186;28;20040;-87
2023/09/30 10:15:24;;;;;;;9.95;3.78;;;;;;;12.26;100.00;100653.97;5068046;28;20045;-87
2023/09/30 10:18:09;;;;;;;13.23;3.23;;;;;;;12.24;100.00;100637.38;5074643;28;20589;-87
2023/09/30 10:20:58;;;;;;;;;;;;;;;;;;;;;
2023/09/30 10:23:32;;;;;;;10.68;2.80;;;;;;;12.15;100.00;100629.34;5074405;28;20027;-86
2023/09/30 10:26:07;;;;;;;11.20;2.58;;;;;;;12.24;100.00;100630.28;5077545;28;20036;-86
2023/09/30 10:28:37;;;;;;;6.07;2.25;;;;;;;12.21;100.00;100627.94;5051706;28;20050;-84
2023/09/30 10:31:12;;;;;;;9.43;2.05;;;;;;;12.22;100.00;100626.94;5057172;28;20031;-87
2023/09/30 10:34:02;;;;;;;9.63;2.42;;;;;;;12.20;100.00;100613.00;5054103;28;20031;-87
2023/09/30 10:36:34;;;;;;;8.02;2.42;;;;;;;12.19;100.00;100610.50;5056838;28;20039;-85
2023/09/30 10:39:01;;;;;;;10.43;2.20;;;;;;;12.17;100.00;100597.41;5056496;28;20043;-87
2023/09/30 10:41:39;;;;;;;12.07;2.58;;;;;;;12.20;100.00;100604.25;5072282;28;20647;-87
2023/09/30 10:44:27;;;;;;;13.00;2.60;;;;;;;12.20;100.00;100593.63;5065345;28;20104;-87
2023/09/30 10:47:24;;;;;;;9.50;2.00;;;;;;;12.20;100.00;100606.88;5500245;22;20036;-88
2023/09/30 10:50:58;;;;;;;12.32;2.88;;;;;;;12.20;100.00;100609.53;5019835;28;20043;-88
2023/09/30 10:53:27;;;;;;;10.15;2.58;;;;;;;12.15;100.00;100599.41;4967396;28;20046;-86
2023/09/30 10:55:58;;;;;;;7.70;2.15;;;;;;;12.18;100.00;100601.75;4974824;28;20041;-87
2023/09/30 10:58:50;;;;;;;5.80;2.35;;;;;;;12.21;100.00;100579.41;5018319;28;20068;-86
2023/09/30 11:01:36;;;;;;;6.18;1.80;;;;;;;12.14;100.00;100561.47;5033408;28;20162;-88
2023/09/30 11:04:13;;;;;;;11.05;2.20;;;;;;;12.19;100.00;100550.41;5037954;28;20037;-87
2023/09/30 11:07:16;;;;;;;4.88;1.45;;;;;;;12.17;100.00;100525.03;5014883;28;20041;-88
2023/09/30 11:11:18;;;;;;;9.02;2.00;;;;;;;12.15;100.00;100512.75;5030151;28;20389;-86
2023/09/30 11:13:53;;;;;;;6.30;1.60;;;;;;;12.04;100.00;100513.81;4999629;28;20071;-87
2023/09/30 11:16:19;;;;;;;4.70;1.55;;;;;;;12.06;100.00;100504.88;5021207;28;20039;-85
2023/09/30 11:19:04;;;;;;;9.63;1.60;;;;;;;12.15;100.00;100504.81;5023469;28;20045;-87
2023/09/30 11:21:30;;;;;;;4.47;1.20;;;;;;;12.14;100.00;100505.81;5036476;28;20032;-88
2023/09/30 11:24:39;;;;;;;4.78;0.98;;;;;;;12.15;100.00;100488.09;5038366;28;20798;-89
2023/09/30 11:30:59;;;;;;;4.00;0.93;;;;;;;12.21;100.00;100471.59;5037813;28;20103;-87
2023/09/30 11:34:14;;;;;;;;;;;;;;;;;;;;;
2023/09/30 11:36:52;;;;;;;4.25;0.98;;;;;;;12.26;100.00;100460.53;5041311;28;20064;-89
2023/09/30 11:40:09;;;;;;;4.72;0.85;;;;;;;12.27;100.00;100455.06;5056097;28;20028;-89
2023/09/30 11:43:01;;;;;;;5.65;1.30;;;;;;;12.26;100.00;100437.47;5017021;28;20041;-88
2023/09/30 11:46:21;;;;;;;4.93;1.10;;;;;;;12.27;100.00;100443.63;5022973;28;20031;-85